Time;durP1;ratioP1;P1;durP2;ratioP2;P2;SDS_P1;SDS_P2;PMS_P1;PMS_P2;Temp;Humidity;BMP_temperature;BMP_pressure;BME280_temperature;BME280_humidity;BME280_pressure;Samples;Min_cycle;Max_cycle;Signal;HPM_P1;HPM_P2
2023/04/23 04:31:05;;;;;;;4.88;1.60;;;13.20;84.00;;;;;;5543885;23;20053;-80
2023/04/23 04:33:32;;;;;;;3.17;1.13;;;13.20;84.30;;;;;;4860450;29;20376;-80
2023/04/23 04:35:59;;;;;;;4.90;1.05;;;13.00;84.50;;;;;;4880011;29;20048;-80
2023/04/23 04:38:25;;;;;;;1.27;0.93;;;13.00;84.70;;;;;;4881476;29;20029;-81
2023/04/23 04:40:54;;;;;;;4.88;1.58;;;12.90;85.00;;;;;;4880258;29;20088;-80
2023/04/23 04:43:19;;;;;;;3.28;1.13;;;13.00;84.90;;;;;;4883181;29;20104;-81
2023/04/23 04:45:45;;;;;;;3.83;1.10;;;12.90;84.50;;;;;;4864634;29;20100;-80
2023/04/23 04:48:11;;;;;;;3.03;1.50;;;12.90;84.60;;;;;;4881380;29;20025;-80
2023/04/23 04:50:36;;;;;;;5.03;1.30;;;13.00;84.70;;;;;;4867788;29;20032;-80
2023/04/23 04:53:02;;;;;;;2.58;0.98;;;13.00;84.50;;;;;;4862610;29;20090;-80
2023/04/23 04:55:27;;;;;;;4.05;1.35;;;13.00;84.40;;;;;;4845957;29;20034;-80
2023/04/23 04:57:53;;;;;;;3.30;1.00;;;13.10;84.20;;;;;;4861918;29;20045;-80
2023/04/23 05:00:23;;;;;;;4.07;1.35;;;13.00;84.10;;;;;;4862715;29;20470;-80
2023/04/23 05:02:52;;;;;;;3.33;1.23;;;13.00;83.70;;;;;;4858169;29;20045;-80
2023/04/23 05:05:19;;;;;;;4.47;1.27;;;13.00;84.00;;;;;;4880607;29;20108;-80
2023/04/23 05:07:44;;;;;;;2.63;1.40;;;12.90;83.60;;;;;;4851819;29;20037;-80
2023/04/23 05:10:10;;;;;;;3.05;1.45;;;12.80;83.60;;;;;;4862871;29;20509;-80
2023/04/23 05:12:40;;;;;;;2.05;1.38;;;12.90;83.60;;;;;;4863612;29;20029;-80
2023/04/23 05:15:12;;;;;;;5.93;1.20;;;12.90;83.40;;;;;;4881375;29;20029;-80
2023/04/23 05:17:38;;;;;;;4.88;1.20;;;13.00;83.40;;;;;;4880522;29;20320;-80
2023/04/23 05:20:04;;;;;;;6.32;1.55;;;12.90;83.60;;;;;;4864700;29;20060;-80
2023/04/23 05:22:29;;;;;;;3.50;1.67;;;12.90;83.10;;;;;;4881231;29;20759;-80
2023/04/23 05:24:55;;;;;;;9.20;1.83;;;12.90;83.20;;;;;;4881140;29;20037;-80
2023/04/23 05:27:21;;;;;;;2.90;1.33;;;12.90;83.30;;;;;;4883721;29;20041;-80
2023/04/23 05:29:46;;;;;;;6.65;1.80;;;12.90;83.10;;;;;;4884553;29;20033;-80
2023/04/23 05:32:12;;;;;;;6.60;1.80;;;13.00;83.40;;;;;;4884534;29;20520;-80
2023/04/23 05:34:38;;;;;;;6.00;1.70;;;12.90;82.70;;;;;;4867231;29;20044;-80
2023/04/23 05:37:05;;;;;;;9.65;2.22;;;12.80;83.40;;;;;;4867642;29;20036;-80
2023/04/23 05:39:30;;;;;;;8.38;2.00;;;12.80;85.10;;;;;;4883820;29;20454;-80
2023/04/23 05:41:56;;;;;;;7.00;1.67;;;12.80;83.80;;;;;;4872210;29;20103;-80
2023/04/23 05:44:22;;;;;;;5.32;1.60;;;12.80;84.20;;;;;;4876399;29;20033;-81
2023/04/23 05:46:48;;;;;;;6.28;1.52;;;12.70;84.70;;;;;;4883132;29;20044;-80
2023/04/23 05:49:14;;;;;;;10.02;2.10;;;12.70;84.50;;;;;;4884109;29;20561;-80
2023/04/23 05:51:39;;;;;;;2.97;1.77;;;12.50;85.90;;;;;;4883675;29;20040;-80
2023/04/23 05:54:05;;;;;;;6.75;2.00;;;12.40;87.00;;;;;;4883046;29;20049;-80
2023/04/23 05:56:31;;;;;;;11.68;2.15;;;12.40;86.90;;;;;;4866754;29;20097;-80
2023/04/23 05:58:56;;;;;;;13.70;2.38;;;12.40;88.00;;;;;;4883657;29;20037;-79
2023/04/23 06:01:22;;;;;;;7.57;2.33;;;12.30;88.20;;;;;;4867240;29;20063;-78
2023/04/23 06:03:48;;;;;;;7.68;2.80;;;12.20;89.20;;;;;;4883780;29;20493;-78
2023/04/23 06:06:14;;;;;;;10.30;2.65;;;12.20;90.20;;;;;;4871301;29;20111;-79
2023/04/23 06:08:39;;;;;;;9.93;2.67;;;12.10;90.50;;;;;;4902511;29;20056;-79
2023/04/23 06:11:06;;;;;;;9.32;2.75;;;12.10;91.30;;;;;;4885015;29;20033;-78
2023/04/23 06:13:32;;;;;;;9.93;3.80;;;12.10;92.10;;;;;;4867032;29;20017;-78
2023/04/23 06:15:58;;;;;;;10.63;3.50;;;12.20;91.70;;;;;;4866305;29;20033;-78
2023/04/23 06:18:24;;;;;;;11.35;4.18;;;12.10;91.80;;;;;;4883871;29;20049;-78
2023/04/23 06:20:50;;;;;;;9.90;3.20;;;12.10;91.90;;;;;;4873751;29;20044;-78
2023/04/23 06:23:16;;;;;;;10.07;3.28;;;12.00;91.80;;;;;;4864997;29;20017;-78
2023/04/23 06:25:42;;;;;;;12.13;3.20;;;11.90;92.10;;;;;;4865476;29;20133;-76
2023/04/23 06:28:07;;;;;;;13.45;3.55;;;11.80;91.60;;;;;;4864946;29;20025;-76
2023/04/23 06:30:33;;;;;;;8.07;3.75;;;11.70;92.10;;;;;;4864726;29;20565;-77
2023/04/23 06:33:00;;;;;;;8.90;3.65;;;11.80;92.70;;;;;;4882573;29;20029;-78
2023/04/23 06:35:26;;;;;;;16.63;4.25;;;11.90;93.40;;;;;;4877103;29;20158;-79
2023/04/23 06:37:52;;;;;;;11.02;3.50;;;11.90;93.20;;;;;;4877485;29;20873;-79
2023/04/23 06:40:17;;;;;;;13.02;3.65;;;12.00;92.90;;;;;;4883390;29;20093;-78
2023/04/23 06:42:44;;;;;;;5.20;3.03;;;11.90;92.90;;;;;;4883152;29;20409;-78
2023/04/23 06:45:10;;;;;;;10.00;3.85;;;12.00;93.20;;;;;;4865834;29;20044;-78
2023/04/23 06:47:36;;;;;;;10.60;3.22;;;12.10;92.90;;;;;;4882969;29;20033;-77
2023/04/23 06:50:04;;;;;;;4.20;2.47;;;12.00;92.80;;;;;;4882970;29;20029;-76
2023/04/23 06:52:30;;;;;;;8.13;3.85;;;12.00;93.10;;;;;;4860616;29;20166;-77
2023/04/23 06:54:55;;;;;;;8.45;3.08;;;12.10;93.00;;;;;;4871048;29;20045;-75
2023/04/23 06:57:21;;;;;;;12.60;3.45;;;12.20;93.00;;;;;;4864208;29;20501;-76
2023/04/23 06:59:46;;;;;;;4.57;2.88;;;12.30;93.30;;;;;;4869477;29;20033;-77
2023/04/23 07:02:12;;;;;;;8.07;3.17;;;12.30;93.10;;;;;;4881167;29;20044;-77
2023/04/23 07:04:38;;;;;;;8.60;3.33;;;12.40;93.20;;;;;;4882696;29;20044;-75
2023/04/23 07:07:03;;;;;;;7.57;3.05;;;12.30;92.80;;;;;;4863990;29;20481;-76
2023/04/23 07:09:29;;;;;;;7.68;3.08;;;12.30;92.90;;;;;;4877867;29;20037;-75
2023/04/23 07:11:55;;;;;;;6.53;2.97;;;12.40;93.10;;;;;;4867448;29;20025;-75
2023/04/23 07:14:21;;;;;;;10.27;3.47;;;12.50;93.00;;;;;;4870019;29;20126;-75
2023/04/23 07:16:46;;;;;;;6.53;3.35;;;12.60;93.00;;;;;;4865940;29;20029;-75
2023/04/23 07:19:12;;;;;;;9.02;2.88;;;12.70;92.90;;;;;;4866671;29;20086;-75
2023/04/23 07:21:37;;;;;;;6.10;2.00;;;12.70;92.90;;;;;;4858889;29;20026;-76
2023/04/23 07:24:05;;;;;;;8.23;2.70;;;12.70;92.70;;;;;;4868322;29;20075;-75
2023/04/23 07:26:34;;;;;;;4.50;1.77;;;12.70;92.80;;;;;;4869626;29;20378;-75
2023/04/23 07:29:01;;;;;;;3.42;1.20;;;12.70;92.60;;;;;;4874163;29;20036;-75
2023/04/23 07:31:27;;;;;;;1.45;1.00;;;12.70;92.50;;;;;;4875154;29;20404;-75
2023/04/23 07:33:54;;;;;;;2.40;0.68;;;12.60;92.00;;;;;;4868438;29;20817;-75
2023/04/23 07:36:21;;;;;;;1.00;0.68;;;12.70;91.90;;;;;;4868243;29;20025;-75
2023/04/23 07:38:46;;;;;;;1.17;0.60;;;12.90;92.30;;;;;;4874416;29;20040;-76
2023/04/23 07:41:12;;;;;;;0.85;0.52;;;13.30;91.70;;;;;;4852992;29;20049;-77
2023/04/23 07:43:39;;;;;;;1.75;1.00;;;13.80;91.20;;;;;;4875934;29;20517;-77
2023/04/23 07:46:06;;;;;;;3.53;1.25;;;13.60;91.20;;;;;;4870034;29;20036;-77
2023/04/23 07:48:33;;;;;;;6.80;3.08;;;13.30;91.40;;;;;;4872685;29;20037;-77
2023/04/23 07:51:00;;;;;;;6.70;2.83;;;13.20;91.00;;;;;;4862148;29;20665;-77
2023/04/23 07:53:27;;;;;;;5.97;2.28;;;15.20;90.40;;;;;;4878705;29;20037;-77
2023/04/23 07:55:55;;;;;;;8.73;3.67;;;16.00;88.30;;;;;;4850461;29;20387;-77
2023/04/23 07:58:21;;;;;;;3.95;1.25;;;15.50;88.00;;;;;;4877216;29;20033;-77
2023/04/23 08:00:47;;;;;;;0.70;0.55;;;15.10;88.60;;;;;;4862068;29;20492;-77
2023/04/23 08:03:12;;;;;;;1.17;0.60;;;15.70;88.50;;;;;;4873209;29;20040;-77
2023/04/23 08:05:39;;;;;;;2.60;0.60;;;16.40;87.80;;;;;;4870341;29;20040;-76
2023/04/23 08:08:06;;;;;;;5.15;2.33;;;16.00;87.00;;;;;;4869316;29;20108;-78
2023/04/23 08:10:32;;;;;;;2.72;1.10;;;15.60;86.10;;;;;;4859194;29;20021;-79
2023/04/23 08:12:58;;;;;;;2.97;1.65;;;15.40;86.10;;;;;;4881260;29;20033;-75
2023/04/23 08:15:24;;;;;;;3.65;1.95;;;15.30;85.70;;;;;;4871745;29;20037;-75
2023/04/23 08:17:49;;;;;;;1.70;0.80;;;15.20;85.30;;;;;;4855221;29;20556;-75
2023/04/23 08:20:15;;;;;;;0.60;0.40;;;15.00;85.40;;;;;;4864355;29;20462;-80
2023/04/23 08:22:41;;;;;;;2.40;0.65;;;15.10;85.30;;;;;;4861405;29;20120;-76
2023/04/23 08:25:07;;;;;;;1.13;0.60;;;15.30;84.40;;;;;;4878606;29;20048;-75
2023/04/23 08:27:33;;;;;;;5.57;0.98;;;16.00;83.20;;;;;;4865216;29;20384;-76
2023/04/23 08:29:59;;;;;;;1.10;0.57;;;18.60;80.20;;;;;;4881367;29;20499;-76
2023/04/23 08:32:24;;;;;;;1.00;0.68;;;19.30;75.60;;;;;;4888666;29;20100;-76
2023/04/23 08:34:50;;;;;;;0.70;0.55;;;19.70;73.20;;;;;;4894896;29;20032;-76
2023/04/23 08:37:16;;;;;;;0.60;0.30;;;21.70;67.10;;;;;;4900991;29;20033;-74
2023/04/23 08:39:41;;;;;;;1.40;0.40;;;23.30;66.60;;;;;;4896843;29;20037;-76
2023/04/23 08:42:23;;;;;;;12.93;1.63;;;24.50;62.10;;;;;;4904314;29;20036;-73
2023/04/23 08:44:52;;;;;;;3.65;0.30;;;25.00;62.10;;;;;;4900552;29;20041;-80
2023/04/23 08:47:22;;;;;;;1.17;0.28;;;24.80;60.80;;;;;;4895568;29;20036;-74
2023/04/23 08:49:53;;;;;;;3.03;0.20;;;23.70;61.60;;;;;;4894881;29;20028;-76
2023/04/23 08:52:24;;;;;;;0.73;0.28;;;21.80;61.10;;;;;;4894178;29;20123;-76
2023/04/23 08:54:53;;;;;;;0.70;0.30;;;21.00;66.20;;;;;;4896307;29;20032;-76
2023/04/23 08:57:19;;;;;;;1.05;0.30;;;20.40;69.70;;;;;;4887018;29;20029;-76
2023/04/23 08:59:46;;;;;;;1.67;0.43;;;19.90;71.40;;;;;;4883968;29;20033;-75
2023/04/23 09:02:14;;;;;;;1.60;0.40;;;19.80;71.50;;;;;;4890648;29;20033;-76
2023/04/23 09:04:40;;;;;;;1.42;0.20;;;19.40;72.20;;;;;;4898832;29;20025;-76
2023/04/23 09:07:10;;;;;;;0.63;0.25;;;19.10;74.10;;;;;;4895612;29;20039;-75
2023/04/23 09:09:37;;;;;;;0.82;0.40;;;18.90;74.00;;;;;;4902353;29;20033;-76
2023/04/23 09:12:05;;;;;;;0.80;0.30;;;19.20;71.50;;;;;;4901480;29;20492;-76
2023/04/23 09:14:30;;;;;;;0.90;0.40;;;19.80;71.00;;;;;;4902217;29;20032;-76
2023/04/23 09:16:56;;;;;;;0.98;0.38;;;20.30;71.10;;;;;;4898524;29;20057;-76
2023/04/23 09:19:26;;;;;;;0.75;0.40;;;20.60;70.70;;;;;;4915799;29;20028;-76
2023/04/23 09:21:52;;;;;;;1.92;0.30;;;22.10;68.80;;;;;;4892218;29;20036;-76
2023/04/23 09:24:20;;;;;;;1.83;0.45;;;22.00;64.20;;;;;;4908187;29;20035;-76
2023/04/23 09:26:48;;;;;;;0.80;0.38;;;21.70;67.90;;;;;;4902380;29;20028;-76
2023/04/23 09:29:20;;;;;;;0.90;0.30;;;22.20;65.00;;;;;;4899419;29;20522;-75
2023/04/23 09:31:46;;;;;;;1.65;0.30;;;21.80;67.40;;;;;;4884719;29;20103;-75
2023/04/23 09:34:17;;;;;;;4.47;0.40;;;21.00;69.20;;;;;;4865435;29;20063;-74
2023/04/23 09:36:44;;;;;;;2.25;0.50;;;20.30;66.90;;;;;;4864045;29;20040;-74
2023/04/23 09:39:14;;;;;;;2.65;0.60;;;19.70;71.00;;;;;;4881897;29;20040;-75
2023/04/23 09:41:40;;;;;;;1.17;0.50;;;19.50;69.30;;;;;;4886157;29;20025;-75
2023/04/23 09:44:11;;;;;;;2.25;0.70;;;19.50;68.20;;;;;;4883183;29;20457;-75
2023/04/23 09:46:38;;;;;;;1.88;0.60;;;19.30;67.70;;;;;;4879607;29;20033;-75
2023/04/23 09:49:09;;;;;;;3.60;0.85;;;19.40;71.10;;;;;;4883281;29;20032;-76
2023/04/23 09:51:39;;;;;;;1.95;0.60;;;19.30;70.10;;;;;;4864891;29;20504;-75
2023/04/23 09:54:20;;;;;;;;;;;18.70;67.30;;;;;;4880887;29;20035;-74
2023/04/23 09:56:52;;;;;;;4.10;1.55;;;18.30;72.90;;;;;;4865098;29;19998;-73
2023/04/23 09:59:23;;;;;;;4.88;1.25;;;18.00;75.30;;;;;;4889990;29;20040;-73
2023/04/23 10:01:48;;;;;;;4.38;0.82;;;18.00;76.90;;;;;;4883851;23;20045;-73
2023/04/23 10:04:22;;;;;;;4.53;1.17;;;17.90;71.00;;;;;;4881314;29;20099;-78
2023/04/23 10:06:56;;;;;;;2.83;0.80;;;18.40;72.00;;;;;;4869856;29;20056;-74
2023/04/23 10:09:23;;;;;;;4.13;1.00;;;19.20;69.10;;;;;;4879871;29;20060;-74
2023/04/23 10:12:01;;;;;;;2.60;0.75;;;19.50;68.30;;;;;;4864067;29;20032;-75
2023/04/23 10:14:28;;;;;;;6.60;0.85;;;19.60;63.90;;;;;;4882890;29;20037;-75
2023/04/23 10:16:59;;;;;;;1.27;0.50;;;19.50;62.70;;;;;;4865777;29;20048;-74
2023/04/23 10:19:26;;;;;;;5.68;1.25;;;19.70;65.30;;;;;;4863929;29;20044;-75
2023/04/23 10:22:03;;;;;;;1.52;0.60;;;19.90;64.00;;;;;;4877294;23;20088;-75
2023/04/23 10:24:32;;;;;;;3.75;0.68;;;19.80;66.90;;;;;;4903547;29;20166;-75
2023/04/23 10:27:03;;;;;;;3.47;0.70;;;20.00;70.40;;;;;;4895048;29;20025;-75
2023/04/23 10:29:34;;;;;;;6.25;0.95;;;20.30;66.00;;;;;;4900100;29;20122;-77
2023/04/23 10:32:01;;;;;;;3.05;0.90;;;20.00;64.80;;;;;;4888251;29;20017;-82
2023/04/23 10:34:28;;;;;;;4.60;0.85;;;19.80;64.00;;;;;;4899057;29;20029;-77
2023/04/23 10:36:56;;;;;;;2.75;0.80;;;19.60;70.40;;;;;;4898972;29;20087;-78
2023/04/23 10:39:27;;;;;;;1.15;0.50;;;19.40;64.50;;;;;;4893839;29;20116;-80
2023/04/23 10:41:54;;;;;;;2.10;0.43;;;19.10;67.20;;;;;;4903236;29;20080;-78
2023/04/23 10:44:22;;;;;;;2.63;1.10;;;18.90;64.90;;;;;;4892627;29;20147;-79
2023/04/23 10:46:57;;;;;;;2.38;0.88;;;19.00;66.80;;;;;;4901157;29;20028;-78
2023/04/23 10:49:24;;;;;;;3.78;1.00;;;19.00;67.50;;;;;;4895900;29;20040;-77
2023/04/23 10:52:17;;;;;;;33.35;9.60;;;18.90;69.60;;;;;;4885618;29;20033;-78
2023/04/23 10:54:48;;;;;;;4.70;1.77;;;18.80;69.80;;;;;;4882649;29;20045;-77
2023/04/23 10:57:14;;;;;;;1.77;0.82;;;18.90;71.70;;;;;;4882831;29;20556;-79
2023/04/23 10:59:50;;;;;;;3.83;1.30;;;18.90;70.90;;;;;;4881776;29;20032;-80
2023/04/23 11:02:16;;;;;;;2.08;1.15;;;18.90;71.70;;;;;;4899206;29;20036;-79
2023/04/23 11:04:53;;;;;;;3.80;0.80;;;19.00;68.10;;;;;;4900211;29;20036;-79
2023/04/23 11:07:18;;;;;;;4.03;0.90;;;18.80;66.50;;;;;;4901037;29;20025;-80
2023/04/23 11:09:48;;;;;;;1.85;0.75;;;18.60;70.00;;;;;;4901370;29;20084;-79
2023/04/23 11:12:19;;;;;;;1.77;1.23;;;18.60;66.80;;;;;;4901202;29;20028;-78
2023/04/23 11:14:49;;;;;;;1.45;0.70;;;18.60;68.40;;;;;;4900888;29;20440;-78
2023/04/23 11:17:20;;;;;;;3.30;0.93;;;18.60;67.20;;;;;;4891690;29;20109;-79
2023/04/23 11:20:19;;;;;;;2.08;0.80;;;18.70;67.90;;;;;;4899838;29;20518;-80
2023/04/23 11:22:46;;;;;;;1.00;0.63;;;18.70;67.60;;;;;;4860756;29;20125;-79
2023/04/23 11:25:15;;;;;;;3.92;1.00;;;18.70;68.70;;;;;;4900298;29;20087;-76
2023/04/23 11:27:44;;;;;;;2.53;0.77;;;18.70;70.80;;;;;;4900706;29;20058;-83
2023/04/23 11:30:11;;;;;;;2.22;0.75;;;18.40;67.70;;;;;;4899818;29;20032;-79
2023/04/23 11:32:37;;;;;;;3.47;1.00;;;18.20;67.70;;;;;;4902656;29;20047;-81
2023/04/23 11:35:04;;;;;;;3.70;0.90;;;18.10;68.50;;;;;;4889546;29;20041;-83
2023/04/23 11:37:29;;;;;;;1.38;0.65;;;18.00;71.90;;;;;;4894747;29;20036;-78
2023/04/23 11:39:55;;;;;;;4.50;0.80;;;17.80;66.80;;;;;;4880778;29;20509;-79
2023/04/23 11:42:21;;;;;;;2.17;0.80;;;17.70;70.10;;;;;;4880876;29;20037;-78
2023/04/23 11:44:46;;;;;;;2.00;0.90;;;17.80;72.00;;;;;;4881737;29;20036;-78
2023/04/23 11:47:17;;;;;;;5.13;1.10;;;18.10;72.40;;;;;;4882136;29;20085;-81
2023/04/23 11:49:43;;;;;;;5.55;0.85;;;18.50;72.10;;;;;;4887482;29;20045;-79
2023/04/23 11:52:10;;;;;;;5.38;1.15;;;18.90;70.80;;;;;;4888689;29;20068;-78
2023/04/23 11:54:35;;;;;;;5.07;0.90;;;18.90;69.70;;;;;;4888361;29;20448;-79
2023/04/23 11:57:03;;;;;;;2.08;0.90;;;18.90;69.40;;;;;;4888148;29;20056;-78
2023/04/23 11:59:29;;;;;;;3.45;0.88;;;19.00;70.30;;;;;;4886933;29;20036;-78
2023/04/23 12:01:58;;;;;;;2.47;0.80;;;19.20;70.80;;;;;;4891793;29;20029;-79
2023/04/23 12:04:27;;;;;;;6.77;0.90;;;19.20;66.20;;;;;;4888116;29;20037;-78
2023/04/23 12:06:54;;;;;;;1.23;0.68;;;19.30;68.00;;;;;;4893474;29;20028;-78
2023/04/23 12:09:21;;;;;;;2.15;0.45;;;19.30;67.80;;;;;;4889229;29;20397;-79
2023/04/23 12:11:49;;;;;;;1.67;0.50;;;18.80;67.60;;;;;;4889672;29;20488;-79
2023/04/23 12:14:16;;;;;;;0.88;0.28;;;18.30;68.20;;;;;;4890500;29;20027;-80
2023/04/23 12:16:46;;;;;;;0.68;0.28;;;17.80;68.40;;;;;;4891249;29;20071;-80
2023/04/23 12:19:17;;;;;;;0.23;0.13;;;17.40;70.00;;;;;;4889240;29;20033;-80
2023/04/23 12:21:53;;;;;;;0.90;0.43;;;17.20;73.80;;;;;;4891617;29;20297;-79
2023/04/23 12:24:23;;;;;;;0.77;0.40;;;17.00;72.40;;;;;;4889083;29;20040;-79
2023/04/23 12:26:54;;;;;;;0.60;0.30;;;16.90;75.20;;;;;;4889571;29;20020;-79
2023/04/23 12:29:21;;;;;;;1.48;0.47;;;16.90;74.20;;;;;;4871639;29;20033;-79
2023/04/23 12:31:48;;;;;;;0.57;0.43;;;17.00;76.30;;;;;;4874883;29;20025;-79
2023/04/23 12:34:18;;;;;;;1.70;0.57;;;17.20;76.30;;;;;;4889622;29;20033;-79
2023/04/23 12:36:46;;;;;;;0.70;0.40;;;17.50;75.20;;;;;;4887266;29;20404;-80
2023/04/23 12:39:30;;;;;;;1.35;0.50;;;17.70;73.90;;;;;;4868583;29;20037;-80
2023/04/23 12:42:00;;;;;;;0.85;0.50;;;17.80;73.40;;;;;;4877792;29;20039;-80
2023/04/23 12:44:26;;;;;;;2.55;1.17;;;18.00;72.60;;;;;;4883061;29;20040;-81
2023/04/23 12:47:02;;;;;;;2.63;0.68;;;18.20;73.00;;;;;;4874933;29;20024;-81
2023/04/23 12:49:28;;;;;;;0.88;0.57;;;18.20;74.30;;;;;;4881430;29;20032;-81
2023/04/23 12:52:00;;;;;;;0.65;0.40;;;18.20;73.30;;;;;;4895142;29;20480;-81
2023/04/23 12:54:26;;;;;;;1.88;0.70;;;18.10;74.70;;;;;;4903384;29;20033;-82
2023/04/23 12:56:53;;;;;;;1.00;0.73;;;18.00;74.60;;;;;;4880975;29;20032;-81
2023/04/23 12:59:18;;;;;;;3.38;1.00;;;17.80;75.30;;;;;;4883728;29;20079;-81
2023/04/23 13:01:44;;;;;;;3.65;1.10;;;17.70;74.50;;;;;;4878070;29;20508;-81
2023/04/23 13:04:09;;;;;;;1.60;0.80;;;17.60;75.40;;;;;;4900370;29;20041;-81
2023/04/23 13:06:35;;;;;;;1.20;0.68;;;17.60;75.70;;;;;;4891816;29;20134;-81
2023/04/23 13:09:04;;;;;;;1.40;0.80;;;17.60;74.90;;;;;;4902068;29;20065;-80
2023/04/23 13:11:32;;;;;;;2.10;0.90;;;17.60;73.80;;;;;;4902408;29;20063;-80
2023/04/23 13:13:58;;;;;;;1.08;0.70;;;17.50;74.50;;;;;;4910360;29;20094;-80
2023/04/23 13:16:23;;;;;;;1.85;1.17;;;17.40;74.60;;;;;;4865725;29;20593;-80
2023/04/23 13:18:52;;;;;;;1.73;1.30;;;17.30;74.20;;;;;;4880540;29;20036;-80
2023/04/23 13:21:18;;;;;;;2.22;1.05;;;17.30;74.70;;;;;;4895117;29;20028;-81
2023/04/23 13:23:44;;;;;;;1.40;1.00;;;17.20;74.50;;;;;;4885745;29;20038;-81
2023/04/23 13:26:11;;;;;;;1.40;1.10;;;17.20;74.10;;;;;;4894668;29;20029;-81
2023/04/23 13:28:37;;;;;;;3.78;1.48;;;17.50;74.70;;;;;;4883956;29;20820;-82
2023/04/23 13:31:03;;;;;;;1.77;1.05;;;17.60;74.50;;;;;;4894776;29;20025;-81
2023/04/23 13:33:30;;;;;;;1.45;0.93;;;17.70;74.00;;;;;;4871340;29;20036;-81
2023/04/23 13:35:57;;;;;;;1.90;0.95;;;17.70;73.90;;;;;;4888591;29;20031;-81
2023/04/23 13:38:24;;;;;;;1.55;0.95;;;17.70;73.70;;;;;;4921741;29;20039;-81
2023/04/23 13:40:49;;;;;;;3.75;1.20;;;17.80;74.00;;;;;;4920992;29;20028;-80
2023/04/23 13:43:15;;;;;;;2.35;1.10;;;18.00;74.00;;;;;;4901017;29;20095;-81
2023/04/23 13:45:40;;;;;;;1.52;1.13;;;17.90;72.90;;;;;;4921443;29;20028;-81
2023/04/23 13:48:06;;;;;;;3.30;1.20;;;18.00;72.60;;;;;;4903749;29;20024;-81
2023/04/23 13:50:33;;;;;;;1.15;0.70;;;18.30;73.40;;;;;;4910672;29;20017;-80
2023/04/23 13:52:58;;;;;;;1.63;1.10;;;18.40;72.10;;;;;;4902434;29;20487;-81
2023/04/23 13:55:25;;;;;;;4.53;1.63;;;18.60;72.00;;;;;;4902436;29;20033;-81
2023/04/23 13:57:50;;;;;;;3.40;2.03;;;18.60;71.80;;;;;;4905104;29;20041;-80
2023/04/23 14:00:17;;;;;;;4.68;2.28;;;18.30;70.30;;;;;;4901787;29;20047;-80
2023/04/23 14:02:42;;;;;;;3.90;2.60;;;17.90;70.20;;;;;;4903801;29;20126;-80
2023/04/23 14:05:08;;;;;;;3.80;2.05;;;17.60;70.50;;;;;;4888493;29;20056;-81
2023/04/23 14:07:35;;;;;;;3.47;2.22;;;17.30;69.80;;;;;;4875598;29;20061;-79
2023/04/23 14:10:01;;;;;;;7.15;3.50;;;17.30;69.70;;;;;;4883379;29;20028;-80
2023/04/23 14:12:28;;;;;;;4.53;2.45;;;17.30;69.80;;;;;;4868848;29;20504;-80
2023/04/23 14:14:54;;;;;;;2.78;2.40;;;17.30;69.90;;;;;;4883318;29;20024;-81
2023/04/23 14:17:20;;;;;;;4.43;2.58;;;17.40;70.90;;;;;;4866011;29;20961;-81
2023/04/23 14:19:46;;;;;;;3.60;2.50;;;17.50;70.70;;;;;;4865847;29;20104;-81
2023/04/23 14:22:12;;;;;;;2.72;2.40;;;17.70;70.00;;;;;;4894448;29;20084;-80
2023/04/23 14:24:45;;;;;;;3.20;2.50;;;17.70;69.50;;;;;;4901900;29;20236;-81
2023/04/23 14:27:11;;;;;;;4.18;2.20;;;17.70;69.80;;;;;;4900822;29;20029;-81
2023/04/23 14:29:45;;;;;;;2.40;2.00;;;17.80;69.10;;;;;;4900723;29;20633;-81
2023/04/23 14:32:11;;;;;;;3.72;2.13;;;17.80;68.70;;;;;;4907693;29;20048;-82
2023/04/23 14:34:38;;;;;;;3.67;2.38;;;17.80;69.10;;;;;;4895999;29;20055;-82
2023/04/23 14:37:04;;;;;;;2.58;1.60;;;17.80;70.10;;;;;;4866269;29;20033;-82
2023/04/23 14:39:30;;;;;;;2.85;1.85;;;17.80;68.90;;;;;;4899738;29;20050;-82
2023/04/23 14:41:55;;;;;;;2.10;1.38;;;17.80;67.50;;;;;;4884237;29;20033;-82
2023/04/23 14:44:27;;;;;;;2.17;1.13;;;17.70;68.10;;;;;;4884882;29;20096;-82
2023/04/23 14:46:54;;;;;;;3.30;1.38;;;17.60;67.10;;;;;;4873228;29;20023;-82
2023/04/23 14:49:19;;;;;;;2.75;1.55;;;17.60;68.20;;;;;;4876456;29;20064;-81
2023/04/23 14:51:48;;;;;;;1.60;1.25;;;17.50;67.80;;;;;;4882913;29;20056;-82
2023/04/23 14:54:14;;;;;;;5.45;1.75;;;17.40;67.60;;;;;;4882700;29;20035;-81
2023/04/23 14:56:40;;;;;;;2.00;1.35;;;17.30;68.10;;;;;;4900213;29;20127;-88
2023/04/23 14:59:06;;;;;;;2.20;1.10;;;17.10;68.40;;;;;;4884316;29;20032;-88
2023/04/23 15:01:32;;;;;;;2.50;1.42;;;17.00;67.20;;;;;;4899823;29;20039;-86
2023/04/23 15:03:57;;;;;;;1.77;1.25;;;16.90;67.30;;;;;;4908383;29;20040;-88
2023/04/23 15:06:23;;;;;;;1.75;0.98;;;16.80;68.60;;;;;;4883845;29;20048;-88
2023/04/23 15:08:49;;;;;;;5.53;2.15;;;16.70;69.00;;;;;;4881074;29;20076;-81
2023/04/23 15:11:14;;;;;;;5.97;2.20;;;16.60;69.30;;;;;;4882087;29;20029;-82
2023/04/23 15:13:59;;;;;;;6.05;2.17;;;16.50;67.20;;;;;;4881978;29;20109;-82
2023/04/23 15:16:31;;;;;;;3.47;2.40;;;16.40;66.10;;;;;;4877587;29;20029;-82
2023/04/23 15:18:59;;;;;;;2.78;2.22;;;16.30;64.60;;;;;;4865567;29;20029;-81
2023/04/23 15:21:25;;;;;;;3.13;2.25;;;16.30;66.40;;;;;;4868236;29;20021;-81
2023/04/23 15:23:51;;;;;;;6.63;2.38;;;16.20;66.80;;;;;;4900093;29;20047;-79
2023/04/23 15:26:16;;;;;;;4.25;2.72;;;16.20;66.00;;;;;;4900102;29;20033;-83
2023/04/23 15:28:42;;;;;;;7.57;2.33;;;16.30;67.20;;;;;;4901045;29;20388;-84
2023/04/23 15:31:08;;;;;;;2.88;2.03;;;16.50;65.50;;;;;;4894423;29;20033;-84
2023/04/23 15:33:33;;;;;;;4.72;2.70;;;16.80;66.20;;;;;;4891590;29;20052;-81
2023/04/23 15:35:59;;;;;;;3.75;2.40;;;16.90;65.10;;;;;;4900961;29;20060;-82
2023/04/23 15:38:25;;;;;;;3.90;2.75;;;17.00;63.30;;;;;;4900959;29;20036;-80
2023/04/23 15:40:50;;;;;;;3.00;2.03;;;17.10;62.30;;;;;;4871082;29;20068;-82
2023/04/23 15:43:24;;;;;;;3.70;2.50;;;17.10;61.90;;;;;;4900342;29;20058;-84
2023/04/23 15:45:51;;;;;;;4.38;2.13;;;17.10;62.60;;;;;;4900247;29;20037;-78
2023/04/23 15:48:17;;;;;;;2.67;2.00;;;17.00;61.10;;;;;;4883525;29;20134;-81
2023/04/23 15:50:43;;;;;;;3.55;2.50;;;17.00;61.20;;;;;;4902460;29;20052;-82
2023/04/23 15:53:08;;;;;;;3.17;2.28;;;16.90;60.40;;;;;;4899613;29;20112;-83
2023/04/23 15:55:34;;;;;;;4.63;2.80;;;16.80;60.20;;;;;;4900526;29;20035;-81
2023/04/23 15:58:02;;;;;;;3.72;2.28;;;16.80;60.70;;;;;;4899195;29;20056;-78
2023/04/23 16:00:29;;;;;;;5.35;3.33;;;16.80;61.60;;;;;;4900954;29;20051;-77
2023/04/23 16:02:57;;;;;;;8.77;4.68;;;16.80;60.60;;;;;;4892722;29;20033;-79
2023/04/23 16:05:23;;;;;;;4.97;3.65;;;16.80;62.20;;;;;;4889200;29;20044;-79
2023/04/23 16:07:49;;;;;;;6.03;2.72;;;16.70;63.30;;;;;;4889460;29;20093;-81
2023/04/23 16:10:14;;;;;;;6.10;3.97;;;16.60;61.60;;;;;;4889368;29;20028;-86
2023/04/23 16:12:44;;;;;;;6.88;3.90;;;16.60;60.90;;;;;;4898678;29;20036;-79
2023/04/23 16:15:10;;;;;;;6.95;4.15;;;16.60;62.60;;;;;;4881913;29;20040;-78
2023/04/23 16:17:36;;;;;;;11.80;7.68;;;16.60;63.50;;;;;;4883559;29;20044;-79
2023/04/23 16:20:03;;;;;;;15.38;10.75;;;16.70;62.00;;;;;;4899182;29;20037;-82
2023/04/23 16:22:29;;;;;;;10.65;7.00;;;16.80;63.60;;;;;;4857472;29;20056;-83
2023/04/23 16:24:55;;;;;;;8.60;4.43;;;16.90;62.70;;;;;;4899940;29;20567;-79
2023/04/23 16:27:21;;;;;;;18.27;10.57;;;17.10;61.60;;;;;;4899665;29;20028;-77
2023/04/23 16:29:47;;;;;;;11.15;6.95;;;17.20;61.10;;;;;;4890643;29;20060;-85
2023/04/23 16:32:13;;;;;;;9.50;6.03;;;17.10;61.40;;;;;;4896070;29;20063;-80
2023/04/23 16:34:38;;;;;;;4.97;3.40;;;17.10;60.80;;;;;;4891695;29;20048;-86
2023/04/23 16:37:08;;;;;;;6.43;3.75;;;17.10;60.90;;;;;;4882371;29;20560;-88
2023/04/23 16:39:34;;;;;;;5.88;4.25;;;17.10;61.70;;;;;;4882673;29;20032;-81
2023/04/23 16:42:00;;;;;;;3.13;2.58;;;17.00;61.90;;;;;;4880892;29;20077;-86
2023/04/23 16:44:26;;;;;;;5.85;2.75;;;17.00;60.30;;;;;;4880658;29;20037;-85
2023/04/23 16:46:52;;;;;;;3.58;2.95;;;16.90;59.20;;;;;;4906683;29;20652;-82
2023/04/23 16:49:18;;;;;;;4.13;2.97;;;17.00;59.60;;;;;;4897380;29;20029;-84
2023/04/23 16:51:43;;;;;;;6.05;2.60;;;16.90;58.10;;;;;;4881228;29;20036;-81
2023/04/23 16:54:26;;;;;;;3.33;2.33;;;16.80;58.30;;;;;;4894599;29;20040;-85
2023/04/23 16:56:51;;;;;;;3.83;3.20;;;16.70;57.30;;;;;;4883049;29;20035;-81
2023/04/23 16:59:17;;;;;;;3.17;2.15;;;16.70;59.40;;;;;;4898702;29;20025;-75
2023/04/23 17:01:42;;;;;;;7.63;3.38;;;16.60;57.20;;;;;;4889781;29;20490;-78
2023/04/23 17:04:08;;;;;;;2.92;2.08;;;16.60;59.70;;;;;;4899008;29;20053;-78
2023/04/23 17:06:34;;;;;;;4.93;3.28;;;16.50;58.80;;;;;;4884716;29;20049;-79
2023/04/23 17:09:01;;;;;;;11.00;7.60;;;16.50;59.70;;;;;;4876913;29;20445;-81
2023/04/23 17:11:28;;;;;;;5.47;3.70;;;16.40;56.90;;;;;;4884514;29;20477;-79
2023/04/23 17:13:55;;;;;;;4.03;2.40;;;16.30;57.90;;;;;;4898657;29;20056;-77
2023/04/23 17:16:21;;;;;;;5.55;3.50;;;16.30;57.60;;;;;;4890372;29;20025;-79